sensor_id;sensor_type;location;lat;lon;timestamp;P1;durP1;ratioP1;P2;durP2;ratioP2
22429;SDS011;11382;48.086;11.632;2024-03-08T00:00:18;22.70;;;14.27;;
22429;SDS011;11382;48.086;11.632;2024-03-08T00:02:47;25.73;;;14.48;;
22429;SDS011;11382;48.086;11.632;2024-03-08T00:05:17;25.20;;;14.38;;
22429;SDS011;11382;48.086;11.632;2024-03-08T00:07:45;27.15;;;15.10;;
22429;SDS011;11382;48.086;11.632;2024-03-08T00:10:13;25.92;;;15.48;;
22429;SDS011;11382;48.086;11.632;2024-03-08T00:12:43;24.08;;;13.57;;
22429;SDS011;11382;48.086;11.632;2024-03-08T00:15:13;27.85;;;14.93;;
22429;SDS011;11382;48.086;11.632;2024-03-08T00:17:46;20.30;;;11.88;;
22429;SDS011;11382;48.086;11.632;2024-03-08T00:20:15;26.42;;;14.48;;
22429;SDS011;11382;48.086;11.632;2024-03-08T00:22:44;28.05;;;15.88;;
22429;SDS011;11382;48.086;11.632;2024-03-08T00:25:12;24.08;;;14.27;;
22429;SDS011;11382;48.086;11.632;2024-03-08T00:27:40;25.55;;;15.40;;
22429;SDS011;11382;48.086;11.632;2024-03-08T00:30:09;25.20;;;14.75;;
22429;SDS011;11382;48.086;11.632;2024-03-08T00:32:39;25.77;;;14.10;;
22429;SDS011;11382;48.086;11.632;2024-03-08T00:35:09;24.75;;;13.90;;
22429;SDS011;11382;48.086;11.632;2024-03-08T00:37:38;23.88;;;14.65;;
22429;SDS011;11382;48.086;11.632;2024-03-08T00:40:08;24.60;;;14.20;;
22429;SDS011;11382;48.086;11.632;2024-03-08T00:42:37;24.80;;;14.30;;
22429;SDS011;11382;48.086;11.632;2024-03-08T00:45:06;24.92;;;14.70;;
22429;SDS011;11382;48.086;11.632;2024-03-08T00:47:36;26.98;;;14.75;;
22429;SDS011;11382;48.086;11.632;2024-03-08T00:50:05;24.42;;;14.40;;
22429;SDS011;11382;48.086;11.632;2024-03-08T00:52:36;24.27;;;14.65;;
22429;SDS011;11382;48.086;11.632;2024-03-08T00:55:04;24.45;;;14.20;;
22429;SDS011;11382;48.086;11.632;2024-03-08T00:57:34;26.38;;;15.23;;
22429;SDS011;11382;48.086;11.632;2024-03-08T01:00:02;27.30;;;15.25;;
22429;SDS011;11382;48.086;11.632;2024-03-08T01:02:32;24.67;;;13.98;;
22429;SDS011;11382;48.086;11.632;2024-03-08T01:05:02;24.88;;;14.30;;
22429;SDS011;11382;48.086;11.632;2024-03-08T01:07:33;26.10;;;15.75;;
22429;SDS011;11382;48.086;11.632;2024-03-08T01:10:03;27.55;;;15.05;;
22429;SDS011;11382;48.086;11.632;2024-03-08T01:15:04;27.88;;;15.68;;
22429;SDS011;11382;48.086;11.632;2024-03-08T01:17:33;24.88;;;14.40;;
22429;SDS011;11382;48.086;11.632;2024-03-08T01:20:01;25.95;;;15.75;;
22429;SDS011;11382;48.086;11.632;2024-03-08T01:22:30;25.13;;;14.98;;
22429;SDS011;11382;48.086;11.632;2024-03-08T01:24:59;25.13;;;15.27;;
22429;SDS011;11382;48.086;11.632;2024-03-08T01:27:27;24.42;;;15.13;;
22429;SDS011;11382;48.086;11.632;2024-03-08T01:29:55;28.27;;;14.68;;
22429;SDS011;11382;48.086;11.632;2024-03-08T01:32:24;26.23;;;14.95;;
22429;SDS011;11382;48.086;11.632;2024-03-08T01:34:52;26.20;;;16.23;;
22429;SDS011;11382;48.086;11.632;2024-03-08T01:37:20;28.27;;;15.40;;
22429;SDS011;11382;48.086;11.632;2024-03-08T01:39:48;29.55;;;16.60;;
22429;SDS011;11382;48.086;11.632;2024-03-08T01:42:18;34.28;;;17.90;;
22429;SDS011;11382;48.086;11.632;2024-03-08T01:44:46;25.42;;;16.35;;
22429;SDS011;11382;48.086;11.632;2024-03-08T01:47:14;27.13;;;16.55;;
22429;SDS011;11382;48.086;11.632;2024-03-08T01:49:43;27.63;;;16.20;;
22429;SDS011;11382;48.086;11.632;2024-03-08T01:52:11;28.48;;;16.25;;
22429;SDS011;11382;48.086;11.632;2024-03-08T01:54:39;26.38;;;15.98;;
22429;SDS011;11382;48.086;11.632;2024-03-08T01:57:07;27.95;;;15.80;;
22429;SDS011;11382;48.086;11.632;2024-03-08T01:59:38;29.00;;;15.57;;
22429;SDS011;11382;48.086;11.632;2024-03-08T02:02:08;26.67;;;16.50;;
22429;SDS011;11382;48.086;11.632;2024-03-08T02:04:37;24.48;;;14.77;;
22429;SDS011;11382;48.086;11.632;2024-03-08T02:07:06;29.98;;;16.33;;
22429;SDS011;11382;48.086;11.632;2024-03-08T02:09:36;27.38;;;15.90;;
22429;SDS011;11382;48.086;11.632;2024-03-08T02:12:05;27.27;;;16.80;;
22429;SDS011;11382;48.086;11.632;2024-03-08T02:14:39;29.52;;;16.73;;
22429;SDS011;11382;48.086;11.632;2024-03-08T02:17:07;27.60;;;15.52;;
22429;SDS011;11382;48.086;11.632;2024-03-08T02:19:35;24.90;;;15.82;;
22429;SDS011;11382;48.086;11.632;2024-03-08T02:22:04;28.52;;;16.40;;
22429;SDS011;11382;48.086;11.632;2024-03-08T02:24:33;25.98;;;15.48;;
22429;SDS011;11382;48.086;11.632;2024-03-08T02:27:02;28.63;;;16.52;;
22429;SDS011;11382;48.086;11.632;2024-03-08T02:29:31;25.88;;;15.98;;
22429;SDS011;11382;48.086;11.632;2024-03-08T02:32:01;30.83;;;16.60;;
22429;SDS011;11382;48.086;11.632;2024-03-08T02:34:29;28.65;;;16.10;;
22429;SDS011;11382;48.086;11.632;2024-03-08T02:36:59;31.20;;;18.05;;
22429;SDS011;11382;48.086;11.632;2024-03-08T02:39:28;29.77;;;16.67;;
22429;SDS011;11382;48.086;11.632;2024-03-08T02:41:57;29.13;;;16.83;;
22429;SDS011;11382;48.086;11.632;2024-03-08T02:44:25;26.75;;;15.75;;
22429;SDS011;11382;48.086;11.632;2024-03-08T02:46:54;27.33;;;15.68;;
22429;SDS011;11382;48.086;11.632;2024-03-08T02:49:22;25.20;;;16.48;;
22429;SDS011;11382;48.086;11.632;2024-03-08T02:51:50;29.25;;;16.60;;
22429;SDS011;11382;48.086;11.632;2024-03-08T02:54:18;31.40;;;17.30;;
22429;SDS011;11382;48.086;11.632;2024-03-08T02:56:48;30.92;;;16.35;;
22429;SDS011;11382;48.086;11.632;2024-03-08T02:59:17;30.52;;;16.73;;
22429;SDS011;11382;48.086;11.632;2024-03-08T03:01:45;29.63;;;16.92;;
22429;SDS011;11382;48.086;11.632;2024-03-08T03:04:13;28.48;;;16.25;;
22429;SDS011;11382;48.086;11.632;2024-03-08T03:06:41;29.08;;;17.38;;
22429;SDS011;11382;48.086;11.632;2024-03-08T03:09:09;30.35;;;17.00;;
22429;SDS011;11382;48.086;11.632;2024-03-08T03:11:38;31.98;;;17.75;;
22429;SDS011;11382;48.086;11.632;2024-03-08T03:14:07;30.77;;;18.10;;
22429;SDS011;11382;48.086;11.632;2024-03-08T03:16:35;29.52;;;18.55;;
22429;SDS011;11382;48.086;11.632;2024-03-08T03:19:03;29.58;;;16.80;;
22429;SDS011;11382;48.086;11.632;2024-03-08T03:21:32;25.27;;;15.95;;
22429;SDS011;11382;48.086;11.632;2024-03-08T03:24:02;28.40;;;17.00;;
22429;SDS011;11382;48.086;11.632;2024-03-08T03:26:32;30.05;;;16.63;;
22429;SDS011;11382;48.086;11.632;2024-03-08T03:29:00;32.10;;;17.75;;
22429;SDS011;11382;48.086;11.632;2024-03-08T03:31:32;30.02;;;17.77;;
22429;SDS011;11382;48.086;11.632;2024-03-08T03:34:00;30.23;;;17.98;;
22429;SDS011;11382;48.086;11.632;2024-03-08T03:36:30;29.25;;;16.55;;
22429;SDS011;11382;48.086;11.632;2024-03-08T03:38:59;31.80;;;16.58;;
22429;SDS011;11382;48.086;11.632;2024-03-08T03:41:37;34.15;;;18.63;;
22429;SDS011;11382;48.086;11.632;2024-03-08T03:44:05;31.50;;;17.30;;
22429;SDS011;11382;48.086;11.632;2024-03-08T03:46:35;35.15;;;17.75;;
22429;SDS011;11382;48.086;11.632;2024-03-08T03:49:03;32.78;;;18.45;;
22429;SDS011;11382;48.086;11.632;2024-03-08T03:51:31;35.60;;;18.45;;
22429;SDS011;11382;48.086;11.632;2024-03-08T03:53:59;31.02;;;18.23;;
22429;SDS011;11382;48.086;11.632;2024-03-08T03:56:30;31.75;;;17.95;;
22429;SDS011;11382;48.086;11.632;2024-03-08T03:58:58;28.83;;;17.50;;
22429;SDS011;11382;48.086;11.632;2024-03-08T04:01:26;31.00;;;17.67;;
22429;SDS011;11382;48.086;11.632;2024-03-08T04:03:56;32.08;;;18.55;;
22429;SDS011;11382;48.086;11.632;2024-03-08T04:06:24;32.65;;;18.98;;
22429;SDS011;11382;48.086;11.632;2024-03-08T04:08:52;31.70;;;17.85;;
22429;SDS011;11382;48.086;11.632;2024-03-08T04:11:20;34.78;;;19.65;;
22429;SDS011;11382;48.086;11.632;2024-03-08T04:13:48;34.95;;;18.48;;
22429;SDS011;11382;48.086;11.632;2024-03-08T04:16:16;35.95;;;19.48;;
22429;SDS011;11382;48.086;11.632;2024-03-08T04:18:45;36.88;;;20.95;;
22429;SDS011;11382;48.086;11.632;2024-03-08T04:21:15;37.75;;;20.98;;
22429;SDS011;11382;48.086;11.632;2024-03-08T04:23:43;35.22;;;19.85;;
22429;SDS011;11382;48.086;11.632;2024-03-08T04:26:11;37.10;;;20.83;;
22429;SDS011;11382;48.086;11.632;2024-03-08T04:28:42;37.80;;;20.02;;
22429;SDS011;11382;48.086;11.632;2024-03-08T04:31:10;37.75;;;20.92;;
22429;SDS011;11382;48.086;11.632;2024-03-08T04:33:38;38.80;;;21.23;;
22429;SDS011;11382;48.086;11.632;2024-03-08T04:36:07;37.17;;;20.70;;
22429;SDS011;11382;48.086;11.632;2024-03-08T04:38:41;39.88;;;21.40;;
22429;SDS011;11382;48.086;11.632;2024-03-08T04:41:09;37.30;;;20.35;;
22429;SDS011;11382;48.086;11.632;2024-03-08T04:43:38;38.45;;;21.17;;
22429;SDS011;11382;48.086;11.632;2024-03-08T04:46:06;40.05;;;22.20;;
22429;SDS011;11382;48.086;11.632;2024-03-08T04:48:35;37.47;;;20.50;;
22429;SDS011;11382;48.086;11.632;2024-03-08T04:51:04;39.97;;;20.95;;
22429;SDS011;11382;48.086;11.632;2024-03-08T04:53:32;39.97;;;21.40;;
22429;SDS011;11382;48.086;11.632;2024-03-08T04:56:02;34.25;;;20.95;;
22429;SDS011;11382;48.086;11.632;2024-03-08T04:58:32;37.55;;;20.92;;
22429;SDS011;11382;48.086;11.632;2024-03-08T05:01:01;36.75;;;20.40;;
22429;SDS011;11382;48.086;11.632;2024-03-08T05:03:29;36.90;;;21.23;;
22429;SDS011;11382;48.086;11.632;2024-03-08T05:05:57;36.92;;;20.98;;
22429;SDS011;11382;48.086;11.632;2024-03-08T05:08:25;36.53;;;20.30;;
22429;SDS011;11382;48.086;11.632;2024-03-08T05:10:53;39.97;;;22.58;;
22429;SDS011;11382;48.086;11.632;2024-03-08T05:13:23;34.63;;;19.35;;
22429;SDS011;11382;48.086;11.632;2024-03-08T05:15:51;38.10;;;20.83;;
22429;SDS011;11382;48.086;11.632;2024-03-08T05:18:19;38.38;;;21.55;;
22429;SDS011;11382;48.086;11.632;2024-03-08T05:20:48;32.28;;;19.50;;
22429;SDS011;11382;48.086;11.632;2024-03-08T05:23:17;38.10;;;20.77;;
22429;SDS011;11382;48.086;11.632;2024-03-08T05:25:46;33.85;;;20.48;;
22429;SDS011;11382;48.086;11.632;2024-03-08T05:28:14;38.60;;;22.05;;
22429;SDS011;11382;48.086;11.632;2024-03-08T05:30:44;38.60;;;21.95;;
22429;SDS011;11382;48.086;11.632;2024-03-08T05:33:12;36.10;;;21.55;;
22429;SDS011;11382;48.086;11.632;2024-03-08T05:35:40;37.97;;;20.90;;
22429;SDS011;11382;48.086;11.632;2024-03-08T05:38:09;38.58;;;21.55;;
22429;SDS011;11382;48.086;11.632;2024-03-08T05:40:39;37.88;;;21.52;;
22429;SDS011;11382;48.086;11.632;2024-03-08T05:43:09;38.33;;;21.17;;
22429;SDS011;11382;48.086;11.632;2024-03-08T05:45:38;36.38;;;20.73;;
22429;SDS011;11382;48.086;11.632;2024-03-08T05:48:07;38.45;;;20.65;;
22429;SDS011;11382;48.086;11.632;2024-03-08T05:50:36;40.38;;;21.08;;
22429;SDS011;11382;48.086;11.632;2024-03-08T05:53:04;34.97;;;20.40;;
22429;SDS011;11382;48.086;11.632;2024-03-08T05:55:33;35.17;;;20.27;;
22429;SDS011;11382;48.086;11.632;2024-03-08T05:58:02;36.00;;;21.13;;
22429;SDS011;11382;48.086;11.632;2024-03-08T06:00:30;36.83;;;21.42;;
22429;SDS011;11382;48.086;11.632;2024-03-08T06:02:58;36.22;;;20.30;;
22429;SDS011;11382;48.086;11.632;2024-03-08T06:05:27;34.70;;;18.95;;
22429;SDS011;11382;48.086;11.632;2024-03-08T06:07:56;37.25;;;19.73;;
22429;SDS011;11382;48.086;11.632;2024-03-08T06:10:24;38.45;;;20.05;;
22429;SDS011;11382;48.086;11.632;2024-03-08T06:12:52;33.45;;;19.42;;
22429;SDS011;11382;48.086;11.632;2024-03-08T06:15:21;36.58;;;19.73;;
22429;SDS011;11382;48.086;11.632;2024-03-08T06:17:49;35.58;;;20.02;;
22429;SDS011;11382;48.086;11.632;2024-03-08T06:20:19;35.13;;;18.98;;
22429;SDS011;11382;48.086;11.632;2024-03-08T06:22:54;37.38;;;20.00;;
22429;SDS011;11382;48.086;11.632;2024-03-08T06:25:22;37.83;;;20.50;;
22429;SDS011;11382;48.086;11.632;2024-03-08T06:27:50;33.60;;;19.13;;
22429;SDS011;11382;48.086;11.632;2024-03-08T06:30:19;31.17;;;17.65;;
22429;SDS011;11382;48.086;11.632;2024-03-08T06:32:48;32.45;;;18.85;;
22429;SDS011;11382;48.086;11.632;2024-03-08T06:35:16;29.73;;;16.85;;
22429;SDS011;11382;48.086;11.632;2024-03-08T06:37:46;36.55;;;19.05;;
22429;SDS011;11382;48.086;11.632;2024-03-08T06:40:15;34.75;;;18.73;;
22429;SDS011;11382;48.086;11.632;2024-03-08T06:42:43;33.55;;;17.23;;
22429;SDS011;11382;48.086;11.632;2024-03-08T06:45:13;30.15;;;17.48;;
22429;SDS011;11382;48.086;11.632;2024-03-08T06:47:45;35.40;;;19.58;;
22429;SDS011;11382;48.086;11.632;2024-03-08T06:50:14;30.05;;;18.17;;
22429;SDS011;11382;48.086;11.632;2024-03-08T06:52:42;31.85;;;18.10;;
22429;SDS011;11382;48.086;11.632;2024-03-08T06:55:10;31.00;;;17.13;;
22429;SDS011;11382;48.086;11.632;2024-03-08T06:57:40;34.55;;;17.85;;
22429;SDS011;11382;48.086;11.632;2024-03-08T07:00:09;33.03;;;17.85;;
22429;SDS011;11382;48.086;11.632;2024-03-08T07:02:44;38.80;;;19.83;;
22429;SDS011;11382;48.086;11.632;2024-03-08T07:05:15;33.95;;;17.33;;
22429;SDS011;11382;48.086;11.632;2024-03-08T07:07:43;33.15;;;18.98;;
22429;SDS011;11382;48.086;11.632;2024-03-08T07:10:11;35.00;;;17.45;;
22429;SDS011;11382;48.086;11.632;2024-03-08T07:12:43;31.10;;;16.88;;
22429;SDS011;11382;48.086;11.632;2024-03-08T07:15:11;29.50;;;15.40;;
22429;SDS011;11382;48.086;11.632;2024-03-08T07:17:41;30.63;;;15.80;;
22429;SDS011;11382;48.086;11.632;2024-03-08T07:20:11;31.35;;;17.15;;
22429;SDS011;11382;48.086;11.632;2024-03-08T07:22:40;31.80;;;15.07;;
22429;SDS011;11382;48.086;11.632;2024-03-08T07:25:12;32.03;;;15.80;;
22429;SDS011;11382;48.086;11.632;2024-03-08T07:27:52;30.17;;;16.02;;
22429;SDS011;11382;48.086;11.632;2024-03-08T07:30:21;33.03;;;16.17;;
22429;SDS011;11382;48.086;11.632;2024-03-08T07:33:26;28.10;;;15.35;;
22429;SDS011;11382;48.086;11.632;2024-03-08T07:35:54;32.05;;;16.23;;
22429;SDS011;11382;48.086;11.632;2024-03-08T07:38:23;29.88;;;16.38;;
22429;SDS011;11382;48.086;11.632;2024-03-08T07:40:51;27.27;;;14.07;;
22429;SDS011;11382;48.086;11.632;2024-03-08T07:43:20;27.17;;;14.85;;
22429;SDS011;11382;48.086;11.632;2024-03-08T07:45:48;27.80;;;16.33;;
22429;SDS011;11382;48.086;11.632;2024-03-08T07:48:17;31.40;;;15.95;;
22429;SDS011;11382;48.086;11.632;2024-03-08T07:50:46;29.70;;;15.27;;
22429;SDS011;11382;48.086;11.632;2024-03-08T07:53:16;25.05;;;14.15;;
22429;SDS011;11382;48.086;11.632;2024-03-08T07:55:44;26.65;;;14.77;;
22429;SDS011;11382;48.086;11.632;2024-03-08T07:58:12;25.50;;;14.63;;
22429;SDS011;11382;48.086;11.632;2024-03-08T08:00:41;24.83;;;14.70;;
22429;SDS011;11382;48.086;11.632;2024-03-08T08:03:09;26.23;;;14.82;;
22429;SDS011;11382;48.086;11.632;2024-03-08T08:05:39;26.58;;;14.60;;
22429;SDS011;11382;48.086;11.632;2024-03-08T08:08:07;24.83;;;15.10;;
22429;SDS011;11382;48.086;11.632;2024-03-08T08:10:37;24.83;;;14.27;;
22429;SDS011;11382;48.086;11.632;2024-03-08T08:13:06;25.33;;;14.45;;
22429;SDS011;11382;48.086;11.632;2024-03-08T08:15:34;23.55;;;13.85;;
22429;SDS011;11382;48.086;11.632;2024-03-08T08:18:04;23.13;;;14.05;;
22429;SDS011;11382;48.086;11.632;2024-03-08T08:20:33;24.70;;;13.55;;
22429;SDS011;11382;48.086;11.632;2024-03-08T08:23:01;27.15;;;14.30;;
22429;SDS011;11382;48.086;11.632;2024-03-08T08:25:29;23.55;;;14.23;;
22429;SDS011;11382;48.086;11.632;2024-03-08T08:27:57;23.67;;;14.35;;
22429;SDS011;11382;48.086;11.632;2024-03-08T08:30:25;25.58;;;15.52;;
22429;SDS011;11382;48.086;11.632;2024-03-08T08:32:53;22.17;;;13.90;;
22429;SDS011;11382;48.086;11.632;2024-03-08T08:35:26;26.52;;;14.73;;
22429;SDS011;11382;48.086;11.632;2024-03-08T08:37:55;27.20;;;15.65;;
22429;SDS011;11382;48.086;11.632;2024-03-08T08:40:25;22.15;;;14.45;;
22429;SDS011;11382;48.086;11.632;2024-03-08T08:42:55;21.88;;;14.38;;
22429;SDS011;11382;48.086;11.632;2024-03-08T08:45:24;25.27;;;15.00;;
22429;SDS011;11382;48.086;11.632;2024-03-08T08:47:52;23.65;;;14.65;;
22429;SDS011;11382;48.086;11.632;2024-03-08T08:50:21;22.00;;;13.85;;
22429;SDS011;11382;48.086;11.632;2024-03-08T08:52:52;20.95;;;13.50;;
22429;SDS011;11382;48.086;11.632;2024-03-08T08:55:20;19.23;;;13.43;;
22429;SDS011;11382;48.086;11.632;2024-03-08T08:57:52;21.58;;;14.20;;
22429;SDS011;11382;48.086;11.632;2024-03-08T09:00:21;22.23;;;14.48;;
22429;SDS011;11382;48.086;11.632;2024-03-08T09:02:54;21.98;;;13.68;;
22429;SDS011;11382;48.086;11.632;2024-03-08T09:05:24;20.88;;;13.73;;
22429;SDS011;11382;48.086;11.632;2024-03-08T09:07:54;20.30;;;13.93;;
22429;SDS011;11382;48.086;11.632;2024-03-08T09:10:22;20.10;;;13.30;;
22429;SDS011;11382;48.086;11.632;2024-03-08T09:12:56;21.38;;;13.82;;
22429;SDS011;11382;48.086;11.632;2024-03-08T09:15:25;18.05;;;13.10;;
22429;SDS011;11382;48.086;11.632;2024-03-08T09:17:55;20.27;;;13.27;;
22429;SDS011;11382;48.086;11.632;2024-03-08T09:20:23;20.38;;;13.32;;
22429;SDS011;11382;48.086;11.632;2024-03-08T09:22:51;18.55;;;13.05;;
22429;SDS011;11382;48.086;11.632;2024-03-08T09:25:21;20.83;;;13.60;;
22429;SDS011;11382;48.086;11.632;2024-03-08T09:27:49;18.63;;;13.23;;
22429;SDS011;11382;48.086;11.632;2024-03-08T09:30:17;18.98;;;13.35;;
22429;SDS011;11382;48.086;11.632;2024-03-08T09:32:47;19.50;;;14.07;;
22429;SDS011;11382;48.086;11.632;2024-03-08T09:35:18;17.45;;;13.48;;
22429;SDS011;11382;48.086;11.632;2024-03-08T09:37:47;20.25;;;13.55;;
22429;SDS011;11382;48.086;11.632;2024-03-08T09:40:18;20.02;;;13.65;;
22429;SDS011;11382;48.086;11.632;2024-03-08T09:42:47;19.40;;;13.05;;
22429;SDS011;11382;48.086;11.632;2024-03-08T09:45:15;21.38;;;13.30;;
22429;SDS011;11382;48.086;11.632;2024-03-08T09:47:44;19.85;;;14.15;;
22429;SDS011;11382;48.086;11.632;2024-03-08T09:50:13;20.02;;;13.93;;
22429;SDS011;11382;48.086;11.632;2024-03-08T09:52:41;19.75;;;13.30;;
22429;SDS011;11382;48.086;11.632;2024-03-08T09:55:10;20.38;;;14.32;;
22429;SDS011;11382;48.086;11.632;2024-03-08T09:57:38;20.83;;;14.35;;
22429;SDS011;11382;48.086;11.632;2024-03-08T10:00:08;18.88;;;13.70;;
22429;SDS011;11382;48.086;11.632;2024-03-08T10:02:50;20.20;;;13.77;;
22429;SDS011;11382;48.086;11.632;2024-03-08T10:05:20;20.13;;;13.80;;
22429;SDS011;11382;48.086;11.632;2024-03-08T10:07:49;18.08;;;12.95;;
22429;SDS011;11382;48.086;11.632;2024-03-08T10:10:17;19.67;;;13.27;;
22429;SDS011;11382;48.086;11.632;2024-03-08T10:12:46;18.75;;;14.02;;
22429;SDS011;11382;48.086;11.632;2024-03-08T10:15:16;21.63;;;14.07;;
22429;SDS011;11382;48.086;11.632;2024-03-08T10:17:47;42.42;;;17.55;;
22429;SDS011;11382;48.086;11.632;2024-03-08T10:20:15;20.83;;;14.48;;
22429;SDS011;11382;48.086;11.632;2024-03-08T10:22:44;18.30;;;13.15;;
22429;SDS011;11382;48.086;11.632;2024-03-08T10:25:32;17.85;;;13.65;;
22429;SDS011;11382;48.086;11.632;2024-03-08T10:28:02;19.27;;;13.80;;
22429;SDS011;11382;48.086;11.632;2024-03-08T10:30:32;21.58;;;14.27;;
22429;SDS011;11382;48.086;11.632;2024-03-08T10:33:01;24.50;;;14.88;;
22429;SDS011;11382;48.086;11.632;2024-03-08T10:35:31;19.52;;;13.73;;
22429;SDS011;11382;48.086;11.632;2024-03-08T10:37:59;18.92;;;14.07;;
22429;SDS011;11382;48.086;11.632;2024-03-08T10:40:31;16.52;;;12.88;;
22429;SDS011;11382;48.086;11.632;2024-03-08T10:42:59;19.23;;;13.45;;
22429;SDS011;11382;48.086;11.632;2024-03-08T10:45:30;19.33;;;12.55;;
22429;SDS011;11382;48.086;11.632;2024-03-08T10:48:04;18.92;;;13.38;;
22429;SDS011;11382;48.086;11.632;2024-03-08T10:50:43;19.45;;;13.07;;
22429;SDS011;11382;48.086;11.632;2024-03-08T10:53:13;17.05;;;12.25;;
22429;SDS011;11382;48.086;11.632;2024-03-08T10:55:41;16.55;;;11.98;;
22429;SDS011;11382;48.086;11.632;2024-03-08T10:58:11;18.40;;;12.38;;
22429;SDS011;11382;48.086;11.632;2024-03-08T11:00:40;17.23;;;12.57;;
22429;SDS011;11382;48.086;11.632;2024-03-08T11:03:09;15.90;;;12.27;;
22429;SDS011;11382;48.086;11.632;2024-03-08T11:06:16;16.98;;;12.75;;
22429;SDS011;11382;48.086;11.632;2024-03-08T11:08:49;19.15;;;12.75;;
22429;SDS011;11382;48.086;11.632;2024-03-08T11:11:25;15.88;;;12.43;;
22429;SDS011;11382;48.086;11.632;2024-03-08T11:16:39;18.83;;;12.35;;
22429;SDS011;11382;48.086;11.632;2024-03-08T11:19:24;19.17;;;12.52;;
22429;SDS011;11382;48.086;11.632;2024-03-08T11:22:01;18.08;;;12.32;;
22429;SDS011;11382;48.086;11.632;2024-03-08T11:24:36;16.05;;;11.15;;
22429;SDS011;11382;48.086;11.632;2024-03-08T11:27:07;18.85;;;12.90;;
22429;SDS011;11382;48.086;11.632;2024-03-08T11:29:36;18.65;;;12.15;;
22429;SDS011;11382;48.086;11.632;2024-03-08T11:32:11;19.73;;;12.50;;
22429;SDS011;11382;48.086;11.632;2024-03-08T11:34:42;17.20;;;12.30;;
22429;SDS011;11382;48.086;11.632;2024-03-08T11:37:13;15.90;;;11.40;;
22429;SDS011;11382;48.086;11.632;2024-03-08T11:39:46;19.73;;;13.50;;
22429;SDS011;11382;48.086;11.632;2024-03-08T11:42:15;18.33;;;12.50;;
22429;SDS011;11382;48.086;11.632;2024-03-08T11:44:44;19.08;;;13.20;;
22429;SDS011;11382;48.086;11.632;2024-03-08T11:47:13;17.42;;;12.70;;
22429;SDS011;11382;48.086;11.632;2024-03-08T11:49:43;19.27;;;12.68;;
22429;SDS011;11382;48.086;11.632;2024-03-08T11:52:12;18.38;;;12.93;;
22429;SDS011;11382;48.086;11.632;2024-03-08T11:54:42;18.58;;;12.07;;
22429;SDS011;11382;48.086;11.632;2024-03-08T11:57:17;18.90;;;12.57;;
22429;SDS011;11382;48.086;11.632;2024-03-08T11:59:49;19.83;;;13.00;;
22429;SDS011;11382;48.086;11.632;2024-03-08T12:02:23;20.40;;;13.30;;
22429;SDS011;11382;48.086;11.632;2024-03-08T12:04:55;17.85;;;12.45;;
22429;SDS011;11382;48.086;11.632;2024-03-08T12:07:26;18.23;;;13.18;;
22429;SDS011;11382;48.086;11.632;2024-03-08T12:12:44;21.55;;;13.88;;
22429;SDS011;11382;48.086;11.632;2024-03-08T12:15:14;20.33;;;12.85;;
22429;SDS011;11382;48.086;11.632;2024-03-08T12:17:46;18.42;;;12.07;;
22429;SDS011;11382;48.086;11.632;2024-03-08T12:20:16;18.27;;;11.93;;
22429;SDS011;11382;48.086;11.632;2024-03-08T12:22:45;21.10;;;12.05;;
22429;SDS011;11382;48.086;11.632;2024-03-08T12:25:13;20.77;;;12.88;;
22429;SDS011;11382;48.086;11.632;2024-03-08T12:27:43;19.70;;;11.70;;
22429;SDS011;11382;48.086;11.632;2024-03-08T12:30:16;17.70;;;11.07;;
22429;SDS011;11382;48.086;11.632;2024-03-08T12:32:52;19.02;;;12.07;;
22429;SDS011;11382;48.086;11.632;2024-03-08T12:35:24;21.20;;;12.15;;
22429;SDS011;11382;48.086;11.632;2024-03-08T12:37:53;21.15;;;12.82;;
22429;SDS011;11382;48.086;11.632;2024-03-08T12:40:25;20.95;;;12.50;;
22429;SDS011;11382;48.086;11.632;2024-03-08T12:42:55;19.42;;;11.73;;
22429;SDS011;11382;48.086;11.632;2024-03-08T12:45:22;21.38;;;12.43;;
22429;SDS011;11382;48.086;11.632;2024-03-08T12:47:52;23.08;;;13.52;;
22429;SDS011;11382;48.086;11.632;2024-03-08T12:50:20;22.77;;;12.90;;
22429;SDS011;11382;48.086;11.632;2024-03-08T12:52:49;19.60;;;12.07;;
22429;SDS011;11382;48.086;11.632;2024-03-08T12:55:19;19.95;;;12.32;;
22429;SDS011;11382;48.086;11.632;2024-03-08T12:57:47;19.63;;;12.95;;
22429;SDS011;11382;48.086;11.632;2024-03-08T13:00:16;23.65;;;12.40;;
22429;SDS011;11382;48.086;11.632;2024-03-08T13:02:46;20.40;;;12.00;;
22429;SDS011;11382;48.086;11.632;2024-03-08T13:05:17;19.13;;;12.40;;
22429;SDS011;11382;48.086;11.632;2024-03-08T13:07:46;21.20;;;12.63;;
22429;SDS011;11382;48.086;11.632;2024-03-08T13:10:15;20.63;;;12.73;;
22429;SDS011;11382;48.086;11.632;2024-03-08T13:12:46;21.67;;;12.77;;
22429;SDS011;11382;48.086;11.632;2024-03-08T13:15:19;19.27;;;12.23;;
22429;SDS011;11382;48.086;11.632;2024-03-08T13:17:47;17.98;;;11.35;;
22429;SDS011;11382;48.086;11.632;2024-03-08T13:20:17;21.88;;;11.93;;
22429;SDS011;11382;48.086;11.632;2024-03-08T13:22:56;17.00;;;11.25;;
22429;SDS011;11382;48.086;11.632;2024-03-08T13:25:28;19.05;;;10.98;;
22429;SDS011;11382;48.086;11.632;2024-03-08T13:27:56;18.63;;;10.60;;
22429;SDS011;11382;48.086;11.632;2024-03-08T13:30:26;20.30;;;11.57;;
22429;SDS011;11382;48.086;11.632;2024-03-08T13:32:55;18.25;;;11.98;;
22429;SDS011;11382;48.086;11.632;2024-03-08T13:35:24;17.30;;;11.57;;
22429;SDS011;11382;48.086;11.632;2024-03-08T13:37:53;17.65;;;11.63;;
22429;SDS011;11382;48.086;11.632;2024-03-08T13:40:22;17.38;;;11.30;;
22429;SDS011;11382;48.086;11.632;2024-03-08T13:42:50;17.73;;;10.90;;
22429;SDS011;11382;48.086;11.632;2024-03-08T13:45:18;19.60;;;11.90;;
22429;SDS011;11382;48.086;11.632;2024-03-08T13:47:50;17.50;;;10.93;;
22429;SDS011;11382;48.086;11.632;2024-03-08T13:50:19;18.27;;;10.35;;
22429;SDS011;11382;48.086;11.632;2024-03-08T13:52:49;18.27;;;11.13;;
22429;SDS011;11382;48.086;11.632;2024-03-08T13:55:21;16.67;;;10.93;;
22429;SDS011;11382;48.086;11.632;2024-03-08T13:57:52;16.05;;;10.27;;
22429;SDS011;11382;48.086;11.632;2024-03-08T14:00:20;17.02;;;10.13;;
22429;SDS011;11382;48.086;11.632;2024-03-08T14:02:51;18.75;;;10.35;;
22429;SDS011;11382;48.086;11.632;2024-03-08T14:05:20;17.48;;;10.45;;
22429;SDS011;11382;48.086;11.632;2024-03-08T14:07:50;16.98;;;10.90;;
22429;SDS011;11382;48.086;11.632;2024-03-08T14:10:21;16.08;;;10.23;;
22429;SDS011;11382;48.086;11.632;2024-03-08T14:12:49;16.58;;;11.10;;
22429;SDS011;11382;48.086;11.632;2024-03-08T14:15:17;15.43;;;10.68;;
22429;SDS011;11382;48.086;11.632;2024-03-08T14:17:52;15.95;;;10.77;;
22429;SDS011;11382;48.086;11.632;2024-03-08T14:20:20;19.05;;;11.68;;
22429;SDS011;11382;48.086;11.632;2024-03-08T14:22:53;19.05;;;11.30;;
22429;SDS011;11382;48.086;11.632;2024-03-08T14:25:22;18.50;;;11.80;;
22429;SDS011;11382;48.086;11.632;2024-03-08T14:27:52;17.73;;;11.68;;
22429;SDS011;11382;48.086;11.632;2024-03-08T14:30:24;19.63;;;12.45;;